Barbers Point N A S, Hawaii
Current Conditions -  °F | °C
As of 8:53 AM on Friday 24 Oct 2014 (Local Time) from PHJR Reporting Station
Clear Clear  
Wind Chill: 82°   Ceiling: Unl
Heat Index: 86°   Visibility: 10mi
Dew Point: 70°   Wind: 5mph
Humidity: 67%   Direction: NA
Pressure: 30.05"   Gusts: NA
Location:  21.319°N, 158.0749°W
Report Text: PHJR 241853Z VRB04KT 10SM CLR 28/21 A3005 RMK AO2 SLP183 T02780211
Loading
Personal Weather Stations






























Interactive Weather Map
Tropical Storm Tracking
New forecast layout! Learn more

10-Day Weather Forecast

Advertisements
Track Severe Weather on mobile